Time;durP1;ratioP1;P1;durP2;ratioP2;P2;SDS_P1;SDS_P2;PMS_P1;PMS_P2;Temp;Humidity;BMP_temperature;BMP_pressure;BME280_temperature;BME280_humidity;BME280_pressure;Samples;Min_cycle;Max_cycle;Signal;HPM_P1;HPM_P2
2023/06/22 00:01:22;;;;;;;6.55;2.17;;;;;;;19.84;100.00;100970.00;5025628;28;20166;-67
2023/06/22 00:03:49;;;;;;;6.13;2.13;;;;;;;19.74;100.00;100967.16;5019515;28;20482;-67
2023/06/22 00:06:16;;;;;;;7.28;2.20;;;;;;;19.70;100.00;100958.53;5029327;28;20096;-67
2023/06/22 00:08:43;;;;;;;8.15;2.45;;;;;;;19.70;100.00;100958.53;5014842;28;20045;-67
2023/06/22 00:11:10;;;;;;;5.88;1.98;;;;;;;19.51;100.00;100959.03;5019907;28;20140;-67
2023/06/22 00:13:38;;;;;;;6.35;1.80;;;;;;;19.53;100.00;100965.06;5024959;28;20192;-67
2023/06/22 00:16:05;;;;;;;6.93;2.03;;;;;;;19.50;100.00;100959.13;5019653;28;20082;-67
2023/06/22 00:18:32;;;;;;;6.70;2.10;;;;;;;19.33;100.00;100974.44;5031466;28;20116;-67
2023/06/22 00:20:59;;;;;;;7.22;2.17;;;;;;;19.34;100.00;100965.53;5020183;28;20076;-67
2023/06/22 00:23:26;;;;;;;7.60;2.15;;;;;;;19.34;100.00;100970.00;5019041;28;20077;-67
2023/06/22 00:25:53;;;;;;;7.15;2.35;;;;;;;19.29;100.00;100972.97;5029135;28;20080;-67
2023/06/22 00:28:20;;;;;;;7.32;2.28;;;;;;;19.05;100.00;100964.06;5027599;28;20085;-67
2023/06/22 00:30:48;;;;;;;7.75;2.50;;;;;;;19.05;100.00;100969.38;5027985;28;20057;-67
2023/06/22 00:33:15;;;;;;;6.88;2.40;;;;;;;19.08;100.00;100979.78;5011065;28;20065;-67
2023/06/22 00:35:43;;;;;;;6.88;2.30;;;;;;;19.14;100.00;100988.16;5019406;28;20049;-67
2023/06/22 00:38:11;;;;;;;4.75;1.70;;;;;;;19.03;100.00;100980.09;5023549;28;20075;-67
2023/06/22 00:40:38;;;;;;;9.77;2.25;;;;;;;18.89;100.00;100982.84;5026054;28;20045;-66
2023/06/22 00:43:05;;;;;;;7.75;2.28;;;;;;;18.82;100.00;100978.91;5025585;28;20136;-66
2023/06/22 00:45:33;;;;;;;7.28;2.45;;;;;;;18.92;100.00;100982.63;5014322;28;20054;-66
2023/06/22 00:48:00;;;;;;;5.63;2.08;;;;;;;18.96;100.00;100970.84;5014543;28;20096;-66
2023/06/22 00:50:33;;;;;;;5.68;1.95;;;;;;;19.07;100.00;100991.34;5029427;28;20045;-67
2023/06/22 00:53:08;;;;;;;6.25;2.05;;;;;;;19.08;100.00;101001.84;5026886;28;20395;-67
2023/06/22 00:55:38;;;;;;;7.55;1.90;;;;;;;19.02;100.00;100999.63;5026903;28;20045;-67
2023/06/22 00:58:10;;;;;;;6.65;2.28;;;;;;;18.87;100.00;101011.28;5022856;28;20046;-67
2023/06/22 01:00:38;;;;;;;7.13;2.53;;;;;;;18.95;100.00;101011.63;5024082;28;20103;-67
2023/06/22 01:03:08;;;;;;;7.63;2.15;;;;;;;18.89;100.00;101001.41;5025862;28;20056;-67
2023/06/22 01:05:38;;;;;;;7.45;2.30;;;;;;;18.85;100.00;100994.63;5018554;28;20289;-67
2023/06/22 01:08:37;;;;;;;6.30;2.03;;;;;;;19.05;100.00;100999.44;5028934;28;20057;-67
2023/06/22 01:11:11;;;;;;;5.43;1.90;;;;;;;18.82;100.00;101008.94;5023940;28;20533;-67
2023/06/22 01:13:46;;;;;;;6.00;2.10;;;;;;;18.87;100.00;101017.44;5022564;28;20068;-67
2023/06/22 01:16:23;;;;;;;9.25;2.28;;;;;;;18.71;100.00;101016.75;5025928;28;20046;-67
2023/06/22 01:18:54;;;;;;;5.20;1.80;;;;;;;18.74;100.00;101019.19;5030238;28;20060;-67
2023/06/22 01:21:24;;;;;;;9.57;2.45;;;;;;;18.89;100.00;101027.94;5028045;28;20131;-67
2023/06/22 01:24:15;;;;;;;6.53;2.15;;;;;;;18.99;100.00;101030.84;5030923;28;20585;-67
2023/06/22 01:27:21;;;;;;;5.45;1.85;;;;;;;18.91;100.00;101026.03;5028745;28;20136;-67
2023/06/22 01:29:52;;;;;;;5.60;1.85;;;;;;;19.02;100.00;101033.28;5023064;28;20056;-67
2023/06/22 01:32:20;;;;;;;7.18;2.42;;;;;;;18.90;100.00;101035.81;5029718;28;20053;-67
2023/06/22 01:34:48;;;;;;;5.85;1.92;;;;;;;18.83;100.00;101031.03;5021194;28;20054;-67
2023/06/22 01:37:15;;;;;;;7.30;2.30;;;;;;;18.89;100.00;101035.91;5015290;28;20060;-67
2023/06/22 01:39:42;;;;;;;6.43;1.65;;;;;;;18.84;100.00;101035.38;5018687;28;20041;-67
2023/06/22 01:42:10;;;;;;;6.10;2.00;;;;;;;18.85;100.00;101047.69;5028658;28;20406;-67
2023/06/22 01:44:38;;;;;;;6.75;1.80;;;;;;;18.70;100.00;101033.63;5013542;28;20049;-67
2023/06/22 01:47:06;;;;;;;5.80;1.90;;;;;;;18.74;100.00;101027.16;5023538;28;20092;-67
2023/06/22 01:49:33;;;;;;;5.40;1.60;;;;;;;18.68;100.00;101033.72;5035047;28;20120;-67
2023/06/22 01:51:59;;;;;;;7.28;1.98;;;;;;;18.67;100.00;101025.88;5020400;28;20245;-67
2023/06/22 01:54:27;;;;;;;5.43;1.55;;;;;;;18.77;100.00;101038.41;5016949;28;20046;-66
2023/06/22 01:56:55;;;;;;;7.20;1.95;;;;;;;18.59;100.00;101027.25;5020177;28;20054;-67
2023/06/22 01:59:42;;;;;;;7.05;2.10;;;;;;;18.65;100.00;101039.22;5028498;28;20128;-67
2023/06/22 02:02:11;;;;;;;6.28;1.88;;;;;;;18.54;100.00;101037.31;5028702;28;20057;-67
2023/06/22 02:04:47;;;;;;;6.25;2.03;;;;;;;18.52;100.00;101049.81;5028118;28;20061;-67
2023/06/22 02:07:17;;;;;;;7.18;2.13;;;;;;;18.47;100.00;101048.38;5030293;28;20053;-67
2023/06/22 02:09:47;;;;;;;8.15;2.10;;;;;;;18.38;100.00;101056.03;5024298;28;20041;-67
2023/06/22 02:12:18;;;;;;;5.93;2.00;;;;;;;18.48;100.00;101056.25;5033588;28;20124;-67
2023/06/22 02:14:46;;;;;;;8.18;2.13;;;;;;;18.46;100.00;101052.00;5023675;28;20535;-67
2023/06/22 02:17:14;;;;;;;5.60;2.00;;;;;;;18.42;100.00;101054.00;5033978;28;20546;-67
2023/06/22 02:19:44;;;;;;;6.60;1.80;;;;;;;18.37;100.00;101064.06;5029260;28;20084;-67
2023/06/22 02:22:12;;;;;;;7.32;2.55;;;;;;;18.16;100.00;101048.59;5029429;28;20049;-67
2023/06/22 02:24:39;;;;;;;5.63;1.88;;;;;;;18.18;100.00;101061.75;5028979;28;20068;-67
2023/06/22 02:27:07;;;;;;;5.90;1.80;;;;;;;18.25;100.00;101059.56;5034602;28;20055;-67
2023/06/22 02:29:33;;;;;;;6.78;2.00;;;;;;;18.29;100.00;101071.66;5032251;28;20099;-67
2023/06/22 02:32:00;;;;;;;6.50;2.10;;;;;;;18.36;100.00;101067.66;5029210;28;20060;-67
2023/06/22 02:34:27;;;;;;;5.47;1.88;;;;;;;18.26;100.00;101072.72;5028882;28;20042;-67
2023/06/22 02:36:53;;;;;;;5.50;1.90;;;;;;;18.40;100.00;101074.47;5029083;28;20563;-67
2023/06/22 02:39:22;;;;;;;6.00;1.67;;;;;;;18.30;100.00;101060.97;5020675;28;20046;-67
2023/06/22 02:41:54;;;;;;;6.35;1.90;;;;;;;18.40;100.00;101077.13;5031114;28;20092;-67
2023/06/22 02:44:20;;;;;;;4.55;1.70;;;;;;;18.44;100.00;101077.78;5030829;28;20053;-67
2023/06/22 02:46:48;;;;;;;5.63;1.95;;;;;;;18.31;100.00;101080.34;5032700;28;20092;-67
2023/06/22 02:49:15;;;;;;;6.05;1.73;;;;;;;18.28;100.00;101085.88;5033267;28;20410;-67
2023/06/22 02:51:46;;;;;;;5.30;1.75;;;;;;;18.22;100.00;101081.81;5043129;28;20081;-66
2023/06/22 02:54:12;;;;;;;6.82;1.77;;;;;;;18.06;100.00;101076.66;5039616;28;20049;-66
2023/06/22 02:56:40;;;;;;;5.72;1.90;;;;;;;17.89;100.00;101077.72;5044089;28;20052;-66
2023/06/22 02:59:07;;;;;;;10.63;2.33;;;;;;;18.09;100.00;101089.69;5030162;28;20108;-66
2023/06/22 03:01:39;;;;;;;4.63;1.70;;;;;;;18.02;100.00;101077.78;5035220;28;20053;-66
2023/06/22 03:04:07;;;;;;;;;;;;;;;18.03;100.00;101095.38;5045344;28;20053;-66
2023/06/22 03:06:35;;;;;;;5.00;1.70;;;;;;;17.94;100.00;101094.16;5014277;28;19929;-66
2023/06/22 03:09:04;;;;;;;4.85;1.73;;;;;;;17.90;100.00;101095.31;5029697;28;20041;-66
2023/06/22 03:11:32;;;;;;;6.47;2.00;;;;;;;17.99;100.00;101101.84;5026540;28;20077;-67
2023/06/22 03:14:00;;;;;;;5.28;1.50;;;;;;;17.94;100.00;101085.38;5030131;28;20056;-67
2023/06/22 03:16:27;;;;;;;5.32;1.90;;;;;;;18.00;100.00;101088.47;5035506;28;20055;-67
2023/06/22 03:18:54;;;;;;;6.25;1.63;;;;;;;18.03;100.00;101098.88;5043772;28;20136;-66
2023/06/22 03:21:22;;;;;;;7.18;2.17;;;;;;;17.80;100.00;101089.69;5031017;28;20053;-66
2023/06/22 03:23:49;;;;;;;6.15;2.13;;;;;;;17.84;100.00;101093.84;5032611;28;20138;-66
2023/06/22 03:26:17;;;;;;;6.78;1.80;;;;;;;17.80;100.00;101100.28;5032275;28;20133;-66
2023/06/22 03:28:44;;;;;;;5.00;1.65;;;;;;;17.93;100.00;101099.56;5029091;28;20084;-66
2023/06/22 03:31:11;;;;;;;5.95;2.05;;;;;;;17.74;100.00;101100.69;5038446;28;20068;-66
2023/06/22 03:33:38;;;;;;;5.53;1.65;;;;;;;17.55;100.00;101082.44;5037611;28;20049;-67
2023/06/22 03:36:05;;;;;;;5.50;1.80;;;;;;;17.53;100.00;101097.56;5041362;28;20135;-67
2023/06/22 03:38:32;;;;;;;8.05;1.90;;;;;;;17.44;100.00;101096.31;5032647;28;20410;-66
2023/06/22 03:40:59;;;;;;;8.32;2.22;;;;;;;17.56;100.00;101101.81;5043166;28;20045;-66
2023/06/22 03:43:25;;;;;;;8.82;1.90;;;;;;;17.58;100.00;101099.91;5031722;28;20055;-67
2023/06/22 03:45:52;;;;;;;7.32;2.50;;;;;;;17.42;100.00;101095.56;5018362;28;20538;-67
2023/06/22 03:48:19;;;;;;;6.25;1.92;;;;;;;17.42;100.00;101103.50;5032230;28;20392;-66
2023/06/22 03:50:46;;;;;;;7.00;2.08;;;;;;;17.36;100.00;101103.03;5051295;28;20063;-67
2023/06/22 03:53:13;;;;;;;7.32;2.20;;;;;;;17.33;100.00;101114.63;5050312;28;20049;-67
2023/06/22 03:55:49;;;;;;;6.70;2.00;;;;;;;17.34;100.00;101110.22;5048779;28;20494;-67
2023/06/22 03:58:16;;;;;;;6.10;1.90;;;;;;;17.34;100.00;101103.09;5049815;28;20057;-67
2023/06/22 04:00:43;;;;;;;6.40;2.22;;;;;;;17.34;100.00;101103.09;5041911;28;20380;-66
2023/06/22 04:03:11;;;;;;;7.50;1.88;;;;;;;17.26;100.00;101110.66;5031571;28;20053;-66
2023/06/22 04:05:39;;;;;;;5.78;2.10;;;;;;;17.34;100.00;101115.50;5044771;28;20071;-66
2023/06/22 04:08:06;;;;;;;6.07;2.05;;;;;;;17.26;100.00;101106.22;5039393;28;20049;-66
2023/06/22 04:10:33;;;;;;;7.32;1.90;;;;;;;17.20;100.00;101105.75;5024980;28;20045;-67
2023/06/22 04:13:00;;;;;;;5.10;1.67;;;;;;;17.34;100.00;101124.28;5033554;28;20065;-67
2023/06/22 04:15:27;;;;;;;6.03;1.65;;;;;;;17.34;100.00;101126.09;5030514;28;20080;-67
2023/06/22 04:17:55;;;;;;;5.57;1.73;;;;;;;17.12;100.00;101111.47;5043973;28;20057;-67
2023/06/22 04:20:22;;;;;;;4.30;1.50;;;;;;;17.44;100.00;101116.63;5038502;28;20041;-67
2023/06/22 04:22:48;;;;;;;6.68;2.20;;;;;;;17.17;100.00;101117.34;5034129;28;20091;-67
2023/06/22 04:25:15;;;;;;;6.50;2.03;;;;;;;17.16;100.00;101118.28;5031933;28;20405;-67
2023/06/22 04:27:42;;;;;;;6.97;2.08;;;;;;;17.12;100.00;101116.75;5048107;28;20088;-67
2023/06/22 04:30:09;;;;;;;6.43;1.63;;;;;;;17.27;100.00;101134.38;5030644;28;20048;-67
2023/06/22 04:32:36;;;;;;;6.13;1.77;;;;;;;17.36;100.00;101126.84;5037100;28;20056;-67
2023/06/22 04:35:04;;;;;;;7.10;2.03;;;;;;;17.20;100.00;101135.69;5032287;28;20049;-67
2023/06/22 04:37:31;;;;;;;9.77;2.00;;;;;;;17.16;100.00;101131.53;5047929;28;20372;-67
2023/06/22 04:39:58;;;;;;;5.95;1.75;;;;;;;17.34;100.00;101140.16;5035231;28;20488;-67
2023/06/22 04:42:26;;;;;;;7.32;1.80;;;;;;;17.30;100.00;101143.94;5044948;28;20041;-67
2023/06/22 04:44:53;;;;;;;5.40;1.80;;;;;;;17.27;100.00;101142.31;5028389;28;20056;-66
2023/06/22 04:47:20;;;;;;;4.85;1.65;;;;;;;17.30;100.00;101146.59;5038441;28;20055;-66
2023/06/22 04:49:47;;;;;;;5.60;1.98;;;;;;;17.17;100.00;101146.44;5042113;28;20071;-66
2023/06/22 04:52:17;;;;;;;5.07;1.60;;;;;;;17.42;100.00;101148.50;5042863;28;20053;-66
2023/06/22 04:54:55;;;;;;;5.70;1.83;;;;;;;17.15;100.00;101152.78;5036749;28;20861;-67
2023/06/22 04:57:32;;;;;;;5.90;2.00;;;;;;;17.16;100.00;101157.97;5047153;28;20080;-67
2023/06/22 05:00:12;;;;;;;6.32;1.88;;;;;;;17.07;100.00;101161.19;5026123;28;20053;-67
2023/06/22 05:02:39;;;;;;;6.65;2.15;;;;;;;16.81;100.00;101162.63;5031670;28;20092;-67
2023/06/22 05:05:08;;;;;;;7.70;2.30;;;;;;;16.83;100.00;101161.63;5040289;28;20060;-67
2023/06/22 05:07:35;;;;;;;8.50;2.50;;;;;;;16.57;100.00;101164.84;5038542;28;20048;-67
2023/06/22 05:10:03;;;;;;;6.45;2.10;;;;;;;16.83;100.00;101180.13;5030294;28;20140;-67
2023/06/22 05:12:29;;;;;;;6.35;2.10;;;;;;;16.65;100.00;101174.06;5024713;28;20049;-66
2023/06/22 05:14:57;;;;;;;3.95;1.55;;;;;;;16.94;100.00;101182.16;5028853;28;20077;-67
2023/06/22 05:17:24;;;;;;;6.75;2.20;;;;;;;17.10;100.00;101168.06;5039048;28;20096;-67
2023/06/22 05:19:51;;;;;;;5.97;2.17;;;;;;;17.26;100.00;101164.44;5037701;28;20112;-66
2023/06/22 05:22:18;;;;;;;7.55;2.35;;;;;;;17.39;100.00;101177.81;5043467;28;20526;-66
2023/06/22 05:24:46;;;;;;;6.10;1.92;;;;;;;17.33;100.00;101182.59;5033402;28;20505;-66
2023/06/22 05:27:14;;;;;;;7.82;2.72;;;;;;;17.36;100.00;101188.56;5043082;28;20080;-66
2023/06/22 05:29:42;;;;;;;6.22;2.03;;;;;;;17.73;100.00;101183.72;5023508;28;20073;-67
2023/06/22 05:32:09;;;;;;;6.50;2.00;;;;;;;18.27;100.00;101171.63;5041989;28;20135;-66
2023/06/22 05:34:36;;;;;;;8.57;2.38;;;;;;;17.93;100.00;101184.31;5028473;28;20045;-66
2023/06/22 05:37:03;;;;;;;8.82;2.75;;;;;;;17.91;100.00;101195.00;5035635;28;20158;-67
2023/06/22 05:39:30;;;;;;;9.15;2.42;;;;;;;17.94;100.00;101192.19;5028647;28;20085;-67
2023/06/22 05:41:57;;;;;;;8.02;2.33;;;;;;;18.01;100.00;101187.38;5027442;28;20049;-66
2023/06/22 05:44:24;;;;;;;7.95;2.03;;;;;;;17.72;100.00;101184.66;5019945;28;20062;-66
2023/06/22 05:46:51;;;;;;;7.05;2.47;;;;;;;17.74;100.00;101180.13;5025174;28;20057;-66
2023/06/22 05:49:18;;;;;;;6.22;2.00;;;;;;;17.59;100.00;101195.13;5029053;28;20056;-67
2023/06/22 05:51:44;;;;;;;10.30;2.45;;;;;;;17.60;100.00;101199.50;5027187;28;20049;-67
2023/06/22 05:54:13;;;;;;;7.38;2.25;;;;;;;17.43;100.00;101197.84;5028430;28;20053;-67
2023/06/22 05:56:40;;;;;;;6.10;1.92;;;;;;;17.53;100.00;101200.81;5029848;28;20053;-67
2023/06/22 05:59:07;;;;;;;6.65;2.30;;;;;;;17.68;100.00;101206.13;5015611;28;20056;-67
2023/06/22 06:01:34;;;;;;;6.75;2.13;;;;;;;17.86;100.00;101199.75;5030149;28;20041;-67
2023/06/22 06:04:03;;;;;;;6.68;2.20;;;;;;;18.15;100.00;101197.97;5027145;28;20057;-67
2023/06/22 06:06:31;;;;;;;6.85;2.35;;;;;;;19.14;100.00;101207.59;5028172;28;20099;-67
2023/06/22 06:08:59;;;;;;;7.85;2.38;;;;;;;19.89;100.00;101204.34;5037102;28;20049;-67
2023/06/22 06:11:26;;;;;;;6.68;2.00;;;;;;;20.40;100.00;101209.59;5027175;28;20474;-67
2023/06/22 06:13:55;;;;;;;11.45;2.28;;;;;;;20.95;100.00;101211.91;5034542;28;20103;-67
2023/06/22 06:16:24;;;;;;;7.28;2.10;;;;;;;21.24;100.00;101205.22;5029899;28;20065;-67
2023/06/22 06:18:51;;;;;;;8.48;2.10;;;;;;;21.37;100.00;101210.50;5029874;28;20056;-67
2023/06/22 06:21:18;;;;;;;6.22;1.80;;;;;;;21.96;100.00;101217.53;5032511;28;20471;-67
2023/06/22 06:23:44;;;;;;;6.85;1.92;;;;;;;21.98;100.00;101214.75;5028771;28;20246;-67
2023/06/22 06:26:11;;;;;;;6.43;1.88;;;;;;;22.22;100.00;101211.13;5030721;28;20063;-67
2023/06/22 06:28:38;;;;;;;7.10;1.88;;;;;;;22.39;100.00;101208.00;5038352;28;20075;-67
2023/06/22 06:31:07;;;;;;;4.63;1.58;;;;;;;22.69;100.00;101212.66;5035651;28;20513;-67
2023/06/22 06:33:34;;;;;;;8.93;1.90;;;;;;;22.68;100.00;101220.78;5040988;28;20041;-67
2023/06/22 06:36:03;;;;;;;5.63;1.90;;;;;;;23.39;100.00;101215.00;5029392;28;20049;-68
2023/06/22 06:38:33;;;;;;;4.80;1.48;;;;;;;23.27;100.00;101211.53;5033569;28;20059;-67
2023/06/22 06:40:59;;;;;;;8.05;1.90;;;;;;;23.39;100.00;101217.66;5029407;28;20041;-68
2023/06/22 06:43:26;;;;;;;6.70;1.90;;;;;;;23.45;100.00;101219.81;5039300;28;20045;-68
2023/06/22 06:45:53;;;;;;;5.63;1.70;;;;;;;23.63;100.00;101226.28;5035178;28;20100;-67
2023/06/22 06:48:20;;;;;;;7.70;1.92;;;;;;;23.94;100.00;101231.72;5056659;28;20711;-67
2023/06/22 06:50:47;;;;;;;6.85;1.77;;;;;;;23.90;93.32;101229.41;5036152;28;20107;-67
2023/06/22 06:53:14;;;;;;;5.82;1.52;;;;;;;23.82;90.32;101222.06;5040960;28;20045;-67
2023/06/22 06:55:40;;;;;;;6.60;1.60;;;;;;;24.02;91.48;101231.03;5030677;28;20049;-67
2023/06/22 06:58:09;;;;;;;7.13;1.70;;;;;;;24.23;88.53;101217.59;5031473;28;20045;-67
2023/06/22 07:00:36;;;;;;;7.35;1.88;;;;;;;24.38;86.71;101235.00;5034839;28;20047;-67
2023/06/22 07:03:04;;;;;;;9.38;1.67;;;;;;;24.73;97.11;101216.78;5052819;28;20049;-67
2023/06/22 07:05:30;;;;;;;5.90;1.90;;;;;;;24.31;82.96;101220.47;5049124;28;20139;-67
2023/06/22 07:07:57;;;;;;;5.70;1.70;;;;;;;24.35;82.13;101219.19;5034650;28;20538;-67
2023/06/22 07:10:24;;;;;;;6.88;2.08;;;;;;;24.22;85.85;101223.94;5044188;28;20132;-67
2023/06/22 07:12:51;;;;;;;6.00;1.52;;;;;;;24.95;84.99;101231.78;5032762;28;20064;-67
2023/06/22 07:15:18;;;;;;;6.90;1.77;;;;;;;24.81;89.16;101214.28;5030316;28;20041;-67
2023/06/22 07:17:45;;;;;;;10.02;2.00;;;;;;;24.80;78.77;101236.66;5046390;28;20437;-67
2023/06/22 07:20:12;;;;;;;6.70;1.70;;;;;;;24.68;82.64;101219.03;5038015;28;20395;-67
2023/06/22 07:22:40;;;;;;;6.20;1.40;;;;;;;24.49;82.15;101214.44;5035481;28;20434;-67
2023/06/22 07:25:13;;;;;;;7.03;1.80;;;;;;;24.58;86.01;101227.91;5023835;28;20053;-66
2023/06/22 07:28:01;;;;;;;6.50;1.83;;;;;;;24.61;84.36;101222.28;5029375;28;20057;-67
2023/06/22 07:30:29;;;;;;;6.63;1.60;;;;;;;24.74;89.61;101235.41;5030800;28;20125;-67
2023/06/22 07:32:57;;;;;;;6.60;1.67;;;;;;;25.21;83.84;101237.41;5031202;28;20149;-67
2023/06/22 07:35:25;;;;;;;7.93;1.75;;;;;;;24.81;82.24;101236.53;5023637;28;20648;-67
2023/06/22 07:37:51;;;;;;;5.03;1.63;;;;;;;24.73;77.69;101227.50;5032550;28;20383;-68
2023/06/22 07:40:18;;;;;;;7.68;1.73;;;;;;;24.51;78.22;101223.19;5032657;28;20175;-68
2023/06/22 07:42:47;;;;;;;4.72;1.38;;;;;;;24.73;82.59;101233.69;5031694;28;20060;-67
2023/06/22 07:45:14;;;;;;;8.82;1.55;;;;;;;25.04;77.19;101246.13;5028260;28;20666;-67
2023/06/22 07:47:41;;;;;;;5.55;1.45;;;;;;;25.16;74.01;101242.34;5048809;28;20053;-67
2023/06/22 07:50:08;;;;;;;6.38;1.70;;;;;;;24.84;75.69;101240.75;5039176;28;20053;-67
2023/06/22 07:52:35;;;;;;;7.43;1.50;;;;;;;25.37;74.17;101248.47;5041099;28;20053;-67
2023/06/22 07:55:02;;;;;;;4.43;1.42;;;;;;;25.01;81.37;101245.44;5038233;28;20574;-67
2023/06/22 07:57:33;;;;;;;3.90;1.15;;;;;;;25.22;72.45;101254.34;5043761;28;20084;-67
2023/06/22 08:00:06;;;;;;;5.53;1.53;;;;;;;24.97;75.62;101245.88;5032171;28;20111;-67
2023/06/22 08:02:32;;;;;;;5.07;1.48;;;;;;;25.01;73.54;101252.63;5032881;28;20049;-68
2023/06/22 08:04:59;;;;;;;6.25;1.42;;;;;;;24.96;73.95;101247.69;5035292;28;20127;-67
2023/06/22 08:07:46;;;;;;;6.65;1.48;;;;;;;25.07;71.02;101252.06;5039099;28;20056;-67
2023/06/22 08:10:14;;;;;;;4.88;1.38;;;;;;;25.30;70.13;101252.69;5040219;28;20037;-67
2023/06/22 08:12:41;;;;;;;4.18;1.30;;;;;;;25.34;71.91;101248.72;5039803;28;20461;-67
2023/06/22 08:15:09;;;;;;;8.43;1.58;;;;;;;25.54;74.85;101248.72;5029588;28;20045;-67
2023/06/22 08:17:40;;;;;;;6.07;1.40;;;;;;;25.62;65.40;101254.22;5032398;28;20414;-67
2023/06/22 08:20:11;;;;;;;6.53;1.50;;;;;;;24.61;69.42;101254.41;5030106;28;20052;-70
2023/06/22 08:22:42;;;;;;;6.73;1.77;;;;;;;24.75;67.81;101253.13;5030134;28;20144;-70
2023/06/22 08:25:10;;;;;;;5.55;1.67;;;;;;;24.39;74.18;101254.56;5025054;28;20460;-71
2023/06/22 08:27:36;;;;;;;6.15;1.67;;;;;;;24.68;70.55;101249.31;5030140;28;20156;-70
2023/06/22 08:30:04;;;;;;;5.32;1.55;;;;;;;24.63;70.26;101251.59;5029679;28;20049;-70
2023/06/22 08:32:32;;;;;;;8.00;1.67;;;;;;;24.47;71.65;101257.44;5031253;28;20072;-70
2023/06/22 08:35:00;;;;;;;5.97;1.30;;;;;;;24.70;71.30;101254.53;5030392;28;20053;-70
2023/06/22 08:37:30;;;;;;;6.50;1.60;;;;;;;24.44;72.01;101258.53;5029612;28;20402;-70
2023/06/22 08:40:09;;;;;;;6.50;1.50;;;;;;;24.30;73.10;101268.75;5029936;28;20050;-70
2023/06/22 08:42:37;;;;;;;8.20;2.08;;;;;;;23.25;76.04;101278.44;5021733;28;20041;-70
2023/06/22 08:45:05;;;;;;;6.65;1.85;;;;;;;22.99;77.31;101266.38;5026315;28;20060;-70
2023/06/22 08:47:31;;;;;;;6.85;1.42;;;;;;;23.81;78.20;101260.47;5030231;28;20132;-70
2023/06/22 08:49:58;;;;;;;6.05;1.60;;;;;;;24.24;74.44;101262.97;5029615;28;20064;-70
2023/06/22 08:52:25;;;;;;;6.93;1.55;;;;;;;24.43;72.61;101264.00;5030856;28;20087;-69
2023/06/22 08:54:52;;;;;;;6.03;1.30;;;;;;;24.80;68.91;101268.81;5028805;28;20052;-69
2023/06/22 08:57:19;;;;;;;5.88;1.58;;;;;;;24.85;70.36;101266.56;5030637;28;20042;-70
2023/06/22 08:59:46;;;;;;;5.20;1.67;;;;;;;24.85;71.74;101277.28;5029067;28;20059;-70
2023/06/22 09:02:12;;;;;;;7.93;1.92;;;;;;;24.62;67.55;101268.63;5030643;28;20140;-70
2023/06/22 09:04:39;;;;;;;4.43;1.45;;;;;;;24.69;69.92;101253.69;5020594;28;20058;-70
2023/06/22 09:07:06;;;;;;;7.22;1.85;;;;;;;23.68;73.54;101265.97;5030038;28;20510;-69
2023/06/22 09:09:33;;;;;;;6.60;1.60;;;;;;;23.19;78.20;101264.75;5044690;28;20418;-69
2023/06/22 09:12:00;;;;;;;6.68;1.65;;;;;;;24.16;73.66;101252.06;5023239;28;20048;-70
2023/06/22 09:14:26;;;;;;;7.35;1.85;;;;;;;24.04;71.59;101270.03;5024270;28;20045;-70
2023/06/22 09:16:53;;;;;;;5.30;1.60;;;;;;;24.73;76.85;101264.97;5026224;28;20063;-69
2023/06/22 09:19:20;;;;;;;7.00;1.73;;;;;;;24.53;73.20;101282.78;5027478;28;20072;-70
2023/06/22 09:21:47;;;;;;;4.85;1.40;;;;;;;24.34;72.00;101275.53;5030212;28;20049;-70
2023/06/22 09:24:13;;;;;;;6.40;1.50;;;;;;;24.10;72.38;101283.84;5039773;28;20050;-69
2023/06/22 09:26:40;;;;;;;5.93;1.60;;;;;;;23.76;73.80;101282.25;5046018;28;20050;-70
2023/06/22 09:29:07;;;;;;;7.65;2.20;;;;;;;23.78;73.60;101280.28;5039242;28;20041;-69
2023/06/22 09:31:33;;;;;;;6.65;1.70;;;;;;;24.52;74.64;101286.44;5029791;28;20132;-70
2023/06/22 09:34:00;;;;;;;6.15;1.73;;;;;;;24.49;71.14;101278.66;5038717;28;20060;-69
2023/06/22 09:36:27;;;;;;;5.60;1.80;;;;;;;24.60;68.91;101276.78;5043691;28;20501;-69
2023/06/22 09:38:58;;;;;;;7.75;1.65;;;;;;;24.14;72.03;101279.94;5032259;28;20084;-70
2023/06/22 09:41:25;;;;;;;8.38;1.52;;;;;;;24.22;73.60;101291.69;5030232;28;20049;-69
2023/06/22 09:43:52;;;;;;;5.90;1.70;;;;;;;24.18;71.68;101287.56;5041401;28;20042;-69
2023/06/22 09:46:24;;;;;;;6.68;1.77;;;;;;;24.24;73.82;101294.19;5039374;28;20463;-70
2023/06/22 09:48:52;;;;;;;8.05;1.83;;;;;;;24.39;70.03;101298.22;5039634;28;20132;-69
2023/06/22 09:51:21;;;;;;;6.85;1.70;;;;;;;24.49;74.28;101295.59;5035404;28;20060;-69
2023/06/22 09:53:48;;;;;;;5.25;1.65;;;;;;;24.89;72.75;101294.75;5045057;28;20417;-69
2023/06/22 09:56:15;;;;;;;12.23;2.22;;;;;;;24.54;67.95;101301.44;5043266;28;20569;-70
2023/06/22 09:58:43;;;;;;;6.00;1.77;;;;;;;23.93;69.68;101309.38;5025089;28;20392;-69
2023/06/22 10:01:10;;;;;;;6.57;1.90;;;;;;;23.40;71.65;101307.53;5031502;28;20049;-70
2023/06/22 10:03:37;;;;;;;5.72;1.80;;;;;;;24.49;70.68;101300.09;5040324;28;20045;-69
2023/06/22 10:06:04;;;;;;;7.55;1.85;;;;;;;25.74;63.35;101298.63;5042439;28;20468;-70
2023/06/22 10:08:31;;;;;;;4.97;1.52;;;;;;;25.60;63.44;101296.38;5039722;28;20049;-70
2023/06/22 10:10:58;;;;;;;6.22;1.80;;;;;;;25.63;66.23;101296.13;5023111;28;20531;-70
2023/06/22 10:13:24;;;;;;;10.50;2.70;;;;;;;24.37;75.80;101283.28;5032657;28;20084;-69
2023/06/22 10:15:53;;;;;;;7.55;2.30;;;;;;;23.91;84.69;101306.00;5040774;28;20112;-70
2023/06/22 10:18:20;;;;;;;6.15;2.03;;;;;;;24.47;81.04;101294.91;5038894;28;20612;-70
2023/06/22 10:20:52;;;;;;;5.75;1.75;;;;;;;24.56;77.04;101299.47;5037057;28;20049;-69
2023/06/22 10:23:20;;;;;;;7.03;2.13;;;;;;;24.26;81.17;101301.13;5038077;28;20072;-69
2023/06/22 10:25:47;;;;;;;6.82;1.92;;;;;;;23.96;80.12;101309.13;5039098;28;20075;-69
2023/06/22 10:28:14;;;;;;;6.32;2.05;;;;;;;24.47;78.74;101308.28;5031386;28;20041;-69
2023/06/22 10:30:41;;;;;;;6.05;1.67;;;;;;;23.53;81.70;101315.38;5041040;28;20139;-70
2023/06/22 10:33:09;;;;;;;7.80;1.80;;;;;;;23.38;84.18;101302.31;5049425;28;20139;-69
2023/06/22 10:35:39;;;;;;;6.85;1.88;;;;;;;22.83;88.62;101317.50;5029956;28;20515;-69
2023/06/22 10:38:06;;;;;;;8.07;2.33;;;;;;;23.01;88.00;101317.81;5038686;28;20080;-69
2023/06/22 10:40:33;;;;;;;7.18;1.80;;;;;;;23.32;85.43;101329.56;5031356;28;20466;-69
2023/06/22 10:43:00;;;;;;;6.15;1.80;;;;;;;23.00;95.23;101311.63;5035963;28;20085;-69
2023/06/22 10:45:27;;;;;;;6.75;1.77;;;;;;;22.92;95.20;101322.09;5037256;28;20084;-70
2023/06/22 10:47:55;;;;;;;6.35;1.85;;;;;;;22.74;97.63;101327.09;5052193;28;20052;-69
2023/06/22 10:50:23;;;;;;;7.57;1.92;;;;;;;22.13;100.00;101328.25;5035244;28;20438;-69
2023/06/22 10:52:50;;;;;;;6.15;1.95;;;;;;;22.13;100.00;101325.56;5042433;28;20049;-69
2023/06/22 10:55:17;;;;;;;7.68;2.10;;;;;;;22.13;98.69;101330.91;5037175;28;20049;-69
2023/06/22 10:57:46;;;;;;;8.52;2.65;;;;;;;21.98;100.00;101324.06;5041691;28;20080;-69
2023/06/22 11:00:15;;;;;;;8.90;1.90;;;;;;;22.45;98.32;101332.03;5049183;28;20107;-69
2023/06/22 11:02:42;;;;;;;7.18;2.10;;;;;;;22.35;100.00;101327.44;5033655;28;20045;-69
2023/06/22 11:05:09;;;;;;;11.52;3.08;;;;;;;21.76;100.00;101331.03;5032634;28;20095;-70
2023/06/22 11:07:37;;;;;;;7.03;2.33;;;;;;;21.43;100.00;101326.38;5046957;28;20462;-70
2023/06/22 11:10:09;;;;;;;8.50;2.60;;;;;;;21.09;100.00;101333.31;5021525;28;20049;-69
2023/06/22 11:12:36;;;;;;;7.40;2.38;;;;;;;21.55;100.00;101328.19;5024441;28;20131;-69
2023/06/22 11:15:04;;;;;;;11.98;2.10;;;;;;;21.91;100.00;101325.50;5041382;28;20045;-70
2023/06/22 11:17:30;;;;;;;7.82;2.17;;;;;;;21.78;100.00;101314.94;5047218;28;20048;-69
2023/06/22 11:19:58;;;;;;;9.05;2.30;;;;;;;21.77;100.00;101310.56;5044248;28;20071;-69
2023/06/22 11:22:25;;;;;;;7.70;2.13;;;;;;;22.37;100.00;101320.16;5044750;28;20186;-70
2023/06/22 11:24:52;;;;;;;8.23;2.03;;;;;;;22.59;100.00;101318.47;5032748;28;20049;-69